Startpagina
METAR-TAF:

METAR-TAF

Vliegvelden :

Montréal Trudeau, Québec, Canada

Montréal-Pierre Elliott Trudeau International Airport

breedte: 45-28N, lengte: 073-45W, hoogte: 31 m

Actueel weer

Dit bericht is 33 minuten geleden gemaakt, om 04:00 UTC
Wind 14 kt uit het westzuidwesten
Temperatuur -15°C
Vochtigheid 65%
Druk 999 hPa
Zicht: 24.1 km
Weinig wolken op 1500 ft

METAR: CYUL 140400Z 24014KT 15SM FEW015 M15/M20 A2951 RMK CF1 CF TR SLP998

Tijdstip: 23:33 (04:33 UTC)

Verwachting

Dit bericht is 1 uur en het 55 minuten geleden gemaakt, om 02:38 UTC
Verwachting geldig van 14 om 03 UTC tot 14 om 24 UTC
Wind 10 kt uit het westen met uitschieters tot 20 kt
Zicht: 10 km
Weinig wolken op 3000 ft
Wijzigt naar
van 14 om 15 UTC tot 14 om 17 UTC
Wind 18 kt uit het westen met uitschieters tot 28 kt

TAF: CYUL 140238Z 1403/1424 26010G20KT P6SM FEW030 BECMG 1415/1417 26018G28KT RMK NXT FCST BY 140600Z

Waarnemingen en weersverwachtingen van meer dan 4000 vliegvelden (METAR en TAF).

De beschikbare stations zijn de gele en rode punten op de kaart.

Ga met uw muis naar het station om de naam te zien.

Klik dan om waarnemingen en weersverwachtingen te zien.

kaart wijzigen: klik op de groene knoppen met een zwart kruis om in te zoomen, op de groene knop met een streepje om uit te zoomen of op de groene pijlen voor aangrenzende kaarten.


METAR-TAF: